This is the latest recevied weather packets stored in our database for station/object OE2WAO-15. If no packets are shown the sender has not sent any weather packets the latest 1 day(s).
| Time | Temp. | Humidity | Pressure | Rain* | Wind** | Luminosity | Snow |
|---|---|---|---|---|---|---|---|
| 1778082619 | 23.33° C | 93% | 1001.6 hPa | - | - | - | - |
| 1778081404 | 23.89° C | 86% | 1001.6 hPa | - | - | - | - |
| 1778078974 | 23.33° C | 87% | 1002.1 hPa | - | - | - | - |
| 1778075937 | 23.89° C | 82% | 1002.6 hPa | - | - | - | - |
| 1778074114 | 23.89° C | 77% | 1003.1 hPa | - | - | - | - |
| 1778071076 | 22.22° C | 99% | 1003.6 hPa | - | - | - | - |
| 1778070469 | 22.22° C | 99% | 1003.7 hPa | - | - | - | - |
| 1778069254 | 22.22° C | 98% | 1003.9 hPa | - | - | - | - |
| 1778068039 | 21.67° C | 99% | 1004.1 hPa | - | - | - | - |
| 1778067431 | 21.67° C | 99% | 1004.4 hPa | - | - | - | - |
| 1778065608 | 20.56° C | 99% | 1005 hPa | - | - | - | - |
| 1778065001 | 20.56° C | 99% | 1005.2 hPa | - | - | - | - |
| 1778063786 | 20° C | 99% | 1005.4 hPa | - | - | - | - |
| 1778062571 | 20° C | 99% | 1005.8 hPa | - | - | - | - |
| 1778061356 | 19.44° C | 99% | 1005.8 hPa | - | - | - | - |
| 1778060141 | 19.44° C | 99% | 1005.9 hPa | - | - | - | - |
| 1778058926 | 18.33° C | 99% | 1006 hPa | - | - | - | - |
| 1778057711 | 17.78° C | 99% | 1006 hPa | - | - | - | - |
| 1778055887 | 16.67° C | 99% | 1006.2 hPa | - | - | - | - |
| 1778055280 | 16.67° C | 99% | 1006.2 hPa | - | - | - | - |
| 1778054672 | 16.67° C | 99% | 1006.2 hPa | - | - | - | - |
| 1778054065 | 16.11° C | 99% | 1006.3 hPa | - | - | - | - |
| 1778053457 | 16.11° C | 99% | 1006.4 hPa | - | - | - | - |
| 1778052850 | 15.56° C | 99% | 1006.3 hPa | - | - | - | - |
| 1778052242 | 15.56° C | 99% | 1006.5 hPa | - | - | - | - |
* Rain since midnight (hover to see other rain measurements)
** Current wind speed in m/s (hover to see current wind gust speed)